M I D A S
Marine Information and Data Acquisition System
Tripno 2098 of the Zeeleeuw from 2011-05-09 07:32:46 to 2011-05-09 14:36:38
Back to CruiseResearch ActivitiesStationsMapUnderway DataData graphs

EquipmentUnitsComment
TimeDGPSUTC
LatitudeDGPSDM.mWGS84
LongitudeDGPSDM.mWGS84
HeadingGyrodeg 
SOGDGPSknotsSpeed over ground
COGDGPSdegCourse over ground
DepthEcho soundermeters200 kHz
Missing or incorrect values are displayed as -999
Navigation data collected by the RV Zeeleeuw from 2011-05-09 07:16:12 to 2011-05-09 14:47:01
                                                                                    Next 1000 lines
Time Latitude Longitude Heading SOG COG Depth
2011-05-09 07:16:23 51°13.661 2°55.961 130 0.1 308 8.1
2011-05-09 07:16:28 51°13.662 2°55.961 130.3 0.1 294 8.2
2011-05-09 07:16:33 51°13.662 2°55.96 130.1 0.1 300 8.1
2011-05-09 07:16:38 51°13.662 2°55.96 130.1 0.1 251 8.1
2011-05-09 07:16:42 51°13.661 2°55.96 130.5 0.1 243 -999
2011-05-09 07:16:48 51°13.661 2°55.96 131.3 0.1 213 8.2
2011-05-09 07:16:52 51°13.661 2°55.96 131.9 0.1 220 -999
2011-05-09 07:16:57 51°13.661 2°55.959 132.6 0.1 262 6
2011-05-09 07:17:02 51°13.661 2°55.959 132.9 0.1 282 8.2
2011-05-09 07:17:08 51°13.661 2°55.959 132.9 -999 247 8.3
2011-05-09 07:17:12 51°13.661 2°55.959 132.2 -999 226 8.3
2011-05-09 07:17:18 51°13.661 2°55.959 131.7 0.1 165 8.2
2011-05-09 07:17:23 51°13.661 2°55.959 131.1 0.1 121 8.2
2011-05-09 07:17:28 51°13.661 2°55.959 130.6 0.1 143 8.2
2011-05-09 07:17:32 51°13.661 2°55.96 129.2 0.1 100 8.2
2011-05-09 07:17:38 51°13.661 2°55.96 127.6 0.1 111 -999
2011-05-09 07:17:43 51°13.661 2°55.96 126 0.1 90 8.2
2011-05-09 07:17:48 51°13.661 2°55.96 124.3 0.1 104 8
2011-05-09 07:17:52 51°13.661 2°55.96 122.7 0.1 99 8
2011-05-09 07:17:57 51°13.661 2°55.96 121.5 0.1 101 8
2011-05-09 07:18:03 51°13.661 2°55.961 119.8 0.1 95 8
2011-05-09 07:18:08 51°13.661 2°55.961 118.4 -999 185 8.1
2011-05-09 07:18:12 51°13.661 2°55.961 117.2 -999 178 8
2011-05-09 07:18:17 51°13.66 2°55.961 116.3 0.1 210 7.9
2011-05-09 07:18:22 51°13.66 2°55.961 115.8 0.1 203 8.1
2011-05-09 07:18:28 51°13.66 2°55.961 115 -999 194 8
2011-05-09 07:18:32 51°13.66 2°55.96 114.3 0.1 172 8
2011-05-09 07:18:37 51°13.66 2°55.96 113.8 0.1 186 8
2011-05-09 07:18:42 51°13.66 2°55.96 113.3 -999 182 8
2011-05-09 07:18:48 51°13.659 2°55.96 112.6 0.1 158 7.9
2011-05-09 07:18:52 51°13.66 2°55.96 112 -999 181 8
2011-05-09 07:18:57 51°13.66 2°55.96 111.6 0.2 297 8
2011-05-09 07:19:02 51°13.66 2°55.959 111.4 0.5 300 8.1
2011-05-09 07:19:07 51°13.66 2°55.958 111.1 0.8 296 6.1
2011-05-09 07:19:12 51°13.661 2°55.955 110.8 1.1 295 8.5
2011-05-09 07:19:17 51°13.662 2°55.952 110.3 1.6 295 8.5
2011-05-09 07:19:22 51°13.663 2°55.949 109.8 1.9 294 8.6
2011-05-09 07:19:29 51°13.665 2°55.942 109.5 2.2 294 -999
2011-05-09 07:19:34 51°13.666 2°55.937 109.2 2.5 293 -999
2011-05-09 07:19:40 51°13.668 2°55.93 108.8 2.8 292 -999
2011-05-09 07:19:45 51°13.67 2°55.924 108.3 3 291 -999
2011-05-09 07:19:51 51°13.671 2°55.916 108.1 3.2 290 -999
2011-05-09 07:19:56 51°13.673 2°55.909 107.5 3.4 290 -999
2011-05-09 07:20:01 51°13.675 2°55.902 107.1 3.6 289 -999
2011-05-09 07:20:07 51°13.677 2°55.893 106.8 3.7 289 -999
2011-05-09 07:20:11 51°13.678 2°55.886 106.5 3.9 288 -999
2011-05-09 07:20:16 51°13.68 2°55.878 106 3.9 288 -999
2011-05-09 07:20:21 51°13.681 2°55.87 105.1 3.9 287 -999
2011-05-09 07:20:27 51°13.683 2°55.86 104.1 3.9 287 -999
2011-05-09 07:20:32 51°13.685 2°55.851 103.1 4 286 -999
2011-05-09 07:20:37 51°13.686 2°55.843 101.7 4 285 -999
2011-05-09 07:20:41 51°13.687 2°55.836 100.3 3.9 283 -999
2011-05-09 07:20:46 51°13.688 2°55.828 98.8 3.9 283 -999
2011-05-09 07:20:52 51°13.689 2°55.818 97.3 3.9 281 -999
2011-05-09 07:20:57 51°13.69 2°55.809 95.7 3.8 280 -999
2011-05-09 07:21:01 51°13.691 2°55.803 94.2 3.7 279 -999
2011-05-09 07:21:06 51°13.692 2°55.795 92.4 3.6 278 -999
2011-05-09 07:21:11 51°13.693 2°55.787 90.7 3.5 276 -999
2011-05-09 07:21:16 51°13.693 2°55.779 88.9 3.4 275 -999
2011-05-09 07:21:21 51°13.693 2°55.772 86.9 3.3 273 -999
2011-05-09 07:21:26 51°13.693 2°55.765 85.1 3.1 272 -999
2011-05-09 07:21:31 51°13.693 2°55.759 82.5 3 270 -999
2011-05-09 07:21:36 51°13.693 2°55.753 80.3 2.6 270 -999
2011-05-09 07:21:41 51°13.693 2°55.748 78.1 1.9 271 -999
2011-05-09 07:21:46 51°13.694 2°55.745 75.6 1.1 281 12.8
2011-05-09 07:21:51 51°13.694 2°55.744 70.7 0.6 311 12.7
2011-05-09 07:21:56 51°13.695 2°55.744 65.6 0.6 343 12.8
2011-05-09 07:22:01 51°13.696 2°55.744 60.1 0.8 7 12.9
2011-05-09 07:22:05 51°13.697 2°55.744 53.3 1 12 12.6
2011-05-09 07:22:10 51°13.699 2°55.745 48.1 1.2 14 12.7
2011-05-09 07:22:15 51°13.701 2°55.746 41.6 1.4 12 12.6
2011-05-09 07:22:20 51°13.703 2°55.746 35.4 1.6 9 12.8
2011-05-09 07:22:25 51°13.705 2°55.746 29.1 1.8 6 12.8
2011-05-09 07:22:31 51°13.709 2°55.747 23 2 3 12.8
2011-05-09 07:22:35 51°13.711 2°55.746 17 2.2 358 12.7
2011-05-09 07:22:41 51°13.715 2°55.746 11 2.5 352 12.7
2011-05-09 07:22:46 51°13.719 2°55.744 4.9 2.7 347 12.7
2011-05-09 07:22:50 51°13.722 2°55.743 356.7 3 343 12.6
2011-05-09 07:22:55 51°13.726 2°55.74 351 3.3 338 12.5
2011-05-09 07:23:00 51°13.731 2°55.736 343.5 3.8 332 12.5
2011-05-09 07:23:05 51°13.736 2°55.731 337 4.1 329 12.1
2011-05-09 07:23:10 51°13.741 2°55.725 331.8 4.5 327 11.6
2011-05-09 07:23:14 51°13.746 2°55.721 329.9 4.9 326 11.9
2011-05-09 07:23:19 51°13.752 2°55.714 329 5.4 326 11.7
2011-05-09 07:23:24 51°13.759 2°55.707 328.9 5.9 326 11.3
2011-05-09 07:23:29 51°13.766 2°55.699 329.2 6.3 327 11.4
2011-05-09 07:23:34 51°13.774 2°55.691 329.6 6.7 327 11.6
2011-05-09 07:23:39 51°13.782 2°55.683 329.6 7 327 11.6
2011-05-09 07:23:43 51°13.789 2°55.676 330.1 7.4 329 11.5
2011-05-09 07:23:48 51°13.799 2°55.667 331.1 7.7 330 11.9
2011-05-09 07:23:54 51°13.811 2°55.656 331.9 8 330 11.8
2011-05-09 07:23:58 51°13.819 2°55.65 332.9 8.2 332 -999
2011-05-09 07:24:03 51°13.829 2°55.641 333.7 8.5 332 11.6
2011-05-09 07:24:08 51°13.84 2°55.633 334.3 8.7 333 11.4
2011-05-09 07:24:13 51°13.851 2°55.624 334.7 8.8 333 11.5
2011-05-09 07:24:18 51°13.862 2°55.615 334.9 9 334 11.4
2011-05-09 07:24:23 51°13.874 2°55.607 335.4 9.1 334 11.4
2011-05-09 07:24:28 51°13.885 2°55.598 336.1 9.2 335 11.4
2011-05-09 07:24:33 51°13.896 2°55.589 336.3 9.3 334 11.3
2011-05-09 07:24:38 51°13.908 2°55.58 335.8 9.4 334 11.3
2011-05-09 07:24:42 51°13.918 2°55.572 335.6 9.5 334 11.4
2011-05-09 07:24:48 51°13.932 2°55.562 336.1 9.5 335 11.2
2011-05-09 07:24:53 51°13.944 2°55.554 336.4 9.5 335 11.2
2011-05-09 07:24:58 51°13.956 2°55.545 336.2 9.6 334 11.2
2011-05-09 07:25:02 51°13.966 2°55.538 336.1 9.6 334 11.2
2011-05-09 07:25:08 51°13.98 2°55.527 336.4 9.6 334 11.2
2011-05-09 07:25:13 51°13.992 2°55.518 336.1 9.6 334 11.1
2011-05-09 07:25:18 51°14.004 2°55.509 336.2 9.6 335 11.1
2011-05-09 07:25:22 51°14.013 2°55.501 337.3 9.6 335 -999
2011-05-09 07:25:28 51°14.028 2°55.49 337.6 9.6 335 11
2011-05-09 07:25:33 51°14.04 2°55.481 337.3 9.6 335 11.1
2011-05-09 07:25:38 51°14.052 2°55.472 336.9 9.6 335 11
2011-05-09 07:25:42 51°14.061 2°55.465 337.3 9.6 336 -999
2011-05-09 07:25:47 51°14.073 2°55.456 337.5 9.6 335 11
2011-05-09 07:25:52 51°14.085 2°55.447 337.4 9.6 336 11
2011-05-09 07:25:57 51°14.097 2°55.438 337.7 9.6 335 11
2011-05-09 07:26:02 51°14.109 2°55.429 337.8 9.6 336 11
2011-05-09 07:26:07 51°14.121 2°55.42 337.6 9.6 335 10.9
2011-05-09 07:26:12 51°14.134 2°55.412 337.7 9.6 336 10.9
2011-05-09 07:26:19 51°14.151 2°55.4 337.5 9.6 335 10.9
2011-05-09 07:26:23 51°14.16 2°55.392 336.3 9.6 334 10.9
2011-05-09 07:26:28 51°14.172 2°55.382 335.5 9.6 333 10.9
2011-05-09 07:26:32 51°14.182 2°55.375 335.2 9.6 333 -999
2011-05-09 07:26:38 51°14.196 2°55.362 334 9.6 331 10.9
2011-05-09 07:26:43 51°14.208 2°55.352 332.5 9.6 330 10.9
2011-05-09 07:26:48 51°14.219 2°55.34 331.2 9.6 328 10.9
2011-05-09 07:26:53 51°14.23 2°55.329 330.3 9.7 328 10.9
2011-05-09 07:26:58 51°14.242 2°55.317 330.1 9.7 328 10.9
2011-05-09 07:27:03 51°14.253 2°55.306 330.2 9.8 328 10.9
2011-05-09 07:27:08 51°14.264 2°55.294 329.9 9.8 327 -999
2011-05-09 07:27:12 51°14.274 2°55.284 329.6 9.9 327 10.9
2011-05-09 07:27:18 51°14.287 2°55.27 329.6 10 328 10.9
2011-05-09 07:27:22 51°14.297 2°55.26 329.6 10.1 327 10.9
2011-05-09 07:27:27 51°14.309 2°55.249 329.7 10.2 328 10.9
2011-05-09 07:27:31 51°14.319 2°55.239 330.3 10.3 328 11
2011-05-09 07:27:38 51°14.336 2°55.222 330.7 10.4 329 10.7
2011-05-09 07:27:42 51°14.345 2°55.213 331 10.4 329 10.6
2011-05-09 07:27:47 51°14.358 2°55.2 331 10.4 329 11
2011-05-09 07:27:53 51°14.373 2°55.186 331.2 10.5 329 10.9
2011-05-09 07:27:58 51°14.385 2°55.175 331.7 10.5 330 10.8
2011-05-09 07:28:03 51°14.398 2°55.163 332.1 10.5 330 10.7
2011-05-09 07:28:07 51°14.408 2°55.153 331.8 10.5 329 11
2011-05-09 07:28:12 51°14.421 2°55.142 331.7 10.5 330 -999
2011-05-09 07:28:18 51°14.436 2°55.128 331.8 10.6 331 10.9
2011-05-09 07:28:23 51°14.449 2°55.116 332.5 10.6 331 10.9
2011-05-09 07:28:27 51°14.459 2°55.107 332.6 10.6 330 10.9
2011-05-09 07:28:32 51°14.472 2°55.095 332.6 10.8 330 11.3
2011-05-09 07:28:39 51°14.49 2°55.078 332.2 10.9 330 11.4
2011-05-09 07:28:43 51°14.5 2°55.068 332.1 10.9 331 11.6
2011-05-09 07:28:48 51°14.514 2°55.056 332.7 11 330 11.7
2011-05-09 07:28:52 51°14.524 2°55.047 332.9 11 330 11.9
2011-05-09 07:28:57 51°14.537 2°55.034 332.5 11.1 329 12.3
2011-05-09 07:29:03 51°14.553 2°55.018 330.9 11.1 326 12.3
2011-05-09 07:29:08 51°14.565 2°55.003 328.4 11.2 322 12.6
2011-05-09 07:29:12 51°14.575 2°54.99 325.2 11.2 318 12.6
2011-05-09 07:29:18 51°14.588 2°54.968 321.5 11.3 315 12
2011-05-09 07:29:23 51°14.598 2°54.949 318 11.6 309 12.4
2011-05-09 07:29:28 51°14.608 2°54.929 314.4 11.6 306 12.5
2011-05-09 07:29:32 51°14.615 2°54.912 310.7 11.6 304 12.4
2011-05-09 07:29:38 51°14.625 2°54.885 307.4 11.7 301 12.4
2011-05-09 07:29:42 51°14.631 2°54.867 303.8 11.7 297 12
2011-05-09 07:29:48 51°14.639 2°54.839 300.1 11.7 293 12.1
2011-05-09 07:29:52 51°14.643 2°54.819 296.3 11.8 289 12.1
2011-05-09 07:29:58 51°14.648 2°54.789 291.3 11.9 284 11.8
2011-05-09 07:30:03 51°14.65 2°54.762 285.8 12 278 12
2011-05-09 07:30:08 51°14.651 2°54.736 280.2 12 273 11.8
2011-05-09 07:30:12 51°14.65 2°54.715 274.4 12 267 11.8
2011-05-09 07:30:18 51°14.648 2°54.683 268.5 12.1 262 11.5
2011-05-09 07:30:23 51°14.644 2°54.657 262.7 12.1 257 11.6
2011-05-09 07:30:28 51°14.639 2°54.632 256.9 12.1 252 10.8
2011-05-09 07:30:32 51°14.634 2°54.612 251.5 12.2 247 10.7
2011-05-09 07:30:37 51°14.626 2°54.588 246.9 12.1 243 10.5
2011-05-09 07:30:42 51°14.618 2°54.565 241.8 12.2 239 10.5
2011-05-09 07:30:48 51°14.606 2°54.538 238.1 12.3 237 10.5
2011-05-09 07:30:52 51°14.598 2°54.52 235.4 12.4 234 10.5
2011-05-09 07:30:57 51°14.588 2°54.498 233.5 12.5 234 10.4
2011-05-09 07:31:02 51°14.577 2°54.475 233.3 12.6 234 10.4
2011-05-09 07:31:08 51°14.564 2°54.449 232.2 12.8 231 10.4
2011-05-09 07:31:12 51°14.556 2°54.431 230.8 12.9 232 10.5
2011-05-09 07:31:17 51°14.545 2°54.409 231 12.8 230 10.3
2011-05-09 07:31:23 51°14.531 2°54.382 230 13 232 10.3
2011-05-09 07:31:27 51°14.523 2°54.364 230.7 13 231 10.1
2011-05-09 07:31:33 51°14.509 2°54.337 230.7 13.1 231 10.1
2011-05-09 07:31:38 51°14.498 2°54.314 231.4 13.1 232 10.1
2011-05-09 07:31:43 51°14.487 2°54.291 231.7 13.2 233 10
2011-05-09 07:31:48 51°14.477 2°54.267 233 13.2 234 10
2011-05-09 07:31:53 51°14.466 2°54.243 234.3 13.2 235 10
2011-05-09 07:31:57 51°14.458 2°54.224 234.8 13.2 235 10
2011-05-09 07:32:03 51°14.446 2°54.195 235.9 13.1 237 9.8
2011-05-09 07:32:08 51°14.436 2°54.17 237.1 13.1 238 9.9
2011-05-09 07:32:13 51°14.427 2°54.145 238.5 13.1 240 9.8
2011-05-09 07:32:17 51°14.419 2°54.126 240 13 240 9.7
2011-05-09 07:32:22 51°14.411 2°54.101 240.7 13 241 9.8
2011-05-09 07:32:28 51°14.4 2°54.07 241.5 13 242 9.7
2011-05-09 07:32:33 51°14.392 2°54.045 242.3 13 241 9.7
2011-05-09 07:32:37 51°14.385 2°54.025 242.2 13 242 9.8
2011-05-09 07:32:42 51°14.376 2°53.999 242.6 13 242 9.7
2011-05-09 07:32:47 51°14.368 2°53.974 242.8 13 242 9.7
2011-05-09 07:32:53 51°14.358 2°53.943 242.7 13 243 9.6
2011-05-09 07:32:57 51°14.352 2°53.923 243.2 13 242 9.6
2011-05-09 07:33:02 51°14.343 2°53.898 243.1 13 243 9.7
2011-05-09 07:33:08 51°14.333 2°53.867 242.8 13 241 9.7
2011-05-09 07:33:13 51°14.325 2°53.842 242.3 13 243 9.7
2011-05-09 07:33:17 51°14.318 2°53.822 242.5 13 241 9.7
2011-05-09 07:33:22 51°14.309 2°53.796 241.9 13 242 9.9
2011-05-09 07:33:27 51°14.3 2°53.771 241.8 13 240 9.7
2011-05-09 07:33:33 51°14.289 2°53.741 241.1 13 240 9.6
2011-05-09 07:33:37 51°14.282 2°53.721 240.2 13 239 9.6
2011-05-09 07:33:42 51°14.273 2°53.697 239.2 13 238 9.7
2011-05-09 07:33:48 51°14.261 2°53.668 238 13 236 9.8
2011-05-09 07:33:53 51°14.25 2°53.644 236.7 13 236 9.8
2011-05-09 07:33:58 51°14.24 2°53.62 235.9 13 236 9.8
2011-05-09 07:34:03 51°14.23 2°53.597 235.7 13 235 9.8
2011-05-09 07:34:08 51°14.219 2°53.573 235 13.1 234 9.8
2011-05-09 07:34:13 51°14.209 2°53.55 234.8 13.1 235 9.7
2011-05-09 07:34:18 51°14.198 2°53.526 234.9 13.1 234 9.8
2011-05-09 07:34:22 51°14.19 2°53.507 234.8 13.1 236 9.8
2011-05-09 07:34:28 51°14.177 2°53.479 235.2 13.1 234 9.9
2011-05-09 07:34:33 51°14.167 2°53.455 235 13.1 235 9.8
2011-05-09 07:34:38 51°14.156 2°53.432 235 13.1 235 9.8
2011-05-09 07:34:42 51°14.148 2°53.413 235.3 13 236 9.9
2011-05-09 07:34:47 51°14.138 2°53.389 235.9 13.1 236 9.9
2011-05-09 07:34:53 51°14.126 2°53.36 236.3 13.1 236 9.9
2011-05-09 07:34:58 51°14.116 2°53.336 236.6 13.1 237 9.9
2011-05-09 07:35:02 51°14.109 2°53.316 238 13.1 238 9.9
2011-05-09 07:35:08 51°14.097 2°53.286 238.7 13.1 239 9.9
2011-05-09 07:35:13 51°14.089 2°53.261 240.1 13.1 241 9.9
2011-05-09 07:35:18 51°14.08 2°53.235 241.7 13.1 241 10.1
2011-05-09 07:35:22 51°14.073 2°53.215 242.5 13.1 242 10
2011-05-09 07:35:28 51°14.063 2°53.184 242.5 13.1 242 10
2011-05-09 07:35:33 51°14.054 2°53.159 242.8 13.1 241 10.1
2011-05-09 07:35:38 51°14.046 2°53.133 242.3 13.2 243 10.1
2011-05-09 07:35:42 51°14.039 2°53.112 242.7 13.1 241 10.1
2011-05-09 07:35:48 51°14.029 2°53.081 242.5 13.1 243 10.1
2011-05-09 07:35:52 51°14.021 2°53.061 242.8 13.1 241 10.2
2011-05-09 07:35:57 51°14.013 2°53.035 242.7 13.1 243 10.1
2011-05-09 07:36:02 51°14.004 2°53.01 242.7 13.2 241 10.2
2011-05-09 07:36:07 51°13.996 2°52.984 242.9 13.1 243 10.1
2011-05-09 07:36:13 51°13.985 2°52.953 242.7 13.2 241 10.3
2011-05-09 07:36:18 51°13.977 2°52.928 242.1 13.2 241 10.3
2011-05-09 07:36:23 51°13.968 2°52.902 242.1 13.2 241 10.2
2011-05-09 07:36:27 51°13.961 2°52.882 241.9 13.2 240 10.3
2011-05-09 07:36:33 51°13.95 2°52.851 241.4 13.2 241 10.2
2011-05-09 07:36:38 51°13.94 2°52.826 240.7 13.2 239 10.3
2011-05-09 07:36:43 51°13.931 2°52.801 240 13.2 240 10.3
2011-05-09 07:36:48 51°13.921 2°52.777 238.9 13.2 237 10.3
2011-05-09 07:36:53 51°13.911 2°52.752 237.5 13.2 237 10.3
2011-05-09 07:36:58 51°13.9 2°52.729 237 13.1 234 10.3
2011-05-09 07:37:03 51°13.89 2°52.704 235.3 13.2 236 10.3
2011-05-09 07:37:07 51°13.882 2°52.686 236 13.2 234 10.2
2011-05-09 07:37:13 51°13.869 2°52.657 235.5 13.2 236 10.4
2011-05-09 07:37:18 51°13.859 2°52.633 235.8 13.1 235 10.3
2011-05-09 07:37:23 51°13.848 2°52.609 235.7 13.2 235 10.4
2011-05-09 07:37:27 51°13.84 2°52.59 235.8 13.2 235 10.4
2011-05-09 07:37:33 51°13.828 2°52.561 236.2 13.2 236 10.3
2011-05-09 07:37:38 51°13.817 2°52.537 236.6 13.2 235 10.3
2011-05-09 07:37:43 51°13.808 2°52.512 237 13.2 238 10.4
2011-05-09 07:37:47 51°13.8 2°52.493 238.1 13.1 237 10.4
2011-05-09 07:37:53 51°13.788 2°52.463 238.8 13.1 239 10.4
2011-05-09 07:37:58 51°13.779 2°52.438 240.3 13.2 240 10.4
2011-05-09 07:38:03 51°13.77 2°52.412 241.3 13.1 241 10.5
2011-05-09 07:38:07 51°13.763 2°52.392 241.7 13.1 241 10.5
2011-05-09 07:38:13 51°13.753 2°52.362 242.1 13.1 242 10.5
2011-05-09 07:38:18 51°13.744 2°52.336 242.5 13.1 242 10.5
2011-05-09 07:38:23 51°13.736 2°52.311 242.6 13.1 242 10.5
2011-05-09 07:38:28 51°13.727 2°52.285 242.8 13.1 242 10.6
2011-05-09 07:38:33 51°13.718 2°52.26 242.8 13.1 241 10.6
2011-05-09 07:38:38 51°13.709 2°52.234 242.6 13.1 241 10.6
2011-05-09 07:38:43 51°13.7 2°52.209 241.8 13.2 241 10.6
2011-05-09 07:38:48 51°13.691 2°52.184 241.3 13.1 239 10.5
2011-05-09 07:38:53 51°13.682 2°52.159 240.3 13.2 239 10.6
2011-05-09 07:38:58 51°13.672 2°52.135 239.6 13.1 238 10.6
2011-05-09 07:39:03 51°13.662 2°52.11 238.4 13.1 237 10.5
2011-05-09 07:39:08 51°13.651 2°52.086 236.8 13.2 236 10.6
2011-05-09 07:39:12 51°13.643 2°52.067 236.6 13.1 235 10.6
2011-05-09 07:39:18 51°13.631 2°52.039 235.6 13.2 235 10.5
2011-05-09 07:39:22 51°13.622 2°52.02 235.3 13.2 235 10.8
2011-05-09 07:39:28 51°13.61 2°51.991 236 13.2 235 10.7
2011-05-09 07:39:32 51°13.601 2°51.972 235.6 13.1 234 10.7
2011-05-09 07:39:38 51°13.589 2°51.943 235.6 13.1 236 10.6
2011-05-09 07:39:43 51°13.578 2°51.919 235.6 13.2 236 10.6
2011-05-09 07:39:48 51°13.568 2°51.895 236.3 13.1 236 10.6
2011-05-09 07:39:52 51°13.56 2°51.876 237 13.1 238 10.7
2011-05-09 07:39:58 51°13.55 2°51.846 238.7 13.1 240 10.7
2011-05-09 07:40:03 51°13.541 2°51.821 240.8 13 242 10.6
2011-05-09 07:40:08 51°13.533 2°51.795 241.9 13 242 10.7
2011-05-09 07:40:12 51°13.526 2°51.774 243.2 13 243 10.7
2011-05-09 07:40:18 51°13.517 2°51.744 244.3 12.9 244 10.6
2011-05-09 07:40:23 51°13.509 2°51.718 244.5 13 245 10.7
2011-05-09 07:40:28 51°13.501 2°51.692 245.4 13 245 10.7
2011-05-09 07:40:32 51°13.495 2°51.671 245.6 13 245 10.8
2011-05-09 07:40:37 51°13.487 2°51.645 245.4 12.9 244 10.8
2011-05-09 07:40:43 51°13.478 2°51.614 245.4 13 245 10.7
2011-05-09 07:40:48 51°13.47 2°51.588 245.4 13 245 10.8
2011-05-09 07:40:52 51°13.464 2°51.568 246 12.9 245 10.8
2011-05-09 07:40:58 51°13.455 2°51.536 245.8 13 245 10.9
2011-05-09 07:41:03 51°13.447 2°51.51 245.8 13 245 10.7
2011-05-09 07:41:08 51°13.439 2°51.485 245.9 13 244 10.9
2011-05-09 07:41:12 51°13.434 2°51.463 246.1 13 245 10.9
2011-05-09 07:41:17 51°13.426 2°51.438 246.1 13 245 10.8
2011-05-09 07:41:23 51°13.416 2°51.407 245.9 13 244 10.8
2011-05-09 07:41:28 51°13.409 2°51.381 245.8 13 245 10.9
2011-05-09 07:41:32 51°13.403 2°51.36 246 13 245 10.9
2011-05-09 07:41:38 51°13.393 2°51.329 246 13 245 10.9
2011-05-09 07:41:43 51°13.385 2°51.303 245.8 13 244 10.9
2011-05-09 07:41:48 51°13.377 2°51.277 245.6 13 244 10.8
2011-05-09 07:41:52 51°13.371 2°51.257 244.7 13 242 11
2011-05-09 07:41:58 51°13.361 2°51.226 244.1 13 242 11
2011-05-09 07:42:03 51°13.351 2°51.201 242.7 13 240 11.1
2011-05-09 07:42:08 51°13.343 2°51.176 241.4 13 240 11
2011-05-09 07:42:12 51°13.335 2°51.157 240.3 13 238 10.9
2011-05-09 07:42:17 51°13.326 2°51.132 239.6 13 239 11
2011-05-09 07:42:23 51°13.314 2°51.103 239.5 13 238 10.9
2011-05-09 07:42:28 51°13.305 2°51.079 238.9 13 238 11
2011-05-09 07:42:32 51°13.297 2°51.06 239 12.9 238 11
2011-05-09 07:42:37 51°13.288 2°51.035 238.8 13 239 11
2011-05-09 07:42:43 51°13.276 2°51.006 239.4 13 239 11
2011-05-09 07:42:48 51°13.267 2°50.981 239.8 13 240 10.9
2011-05-09 07:42:52 51°13.26 2°50.961 240.4 13 241 11
2011-05-09 07:42:57 51°13.252 2°50.936 242.2 13 242 11
2011-05-09 07:43:03 51°13.242 2°50.905 243.2 13 243 10.9
2011-05-09 07:43:08 51°13.234 2°50.879 244.5 13 244 11
2011-05-09 07:43:12 51°13.228 2°50.859 245 13 244 11
2011-05-09 07:43:18 51°13.219 2°50.827 245.5 13 246 11
2011-05-09 07:43:23 51°13.211 2°50.801 246.1 13.1 244 11.1
2011-05-09 07:43:28 51°13.203 2°50.775 246.1 13.1 245 11.1
2011-05-09 07:43:32 51°13.197 2°50.754 246.1 13.1 245 11.1
2011-05-09 07:43:37 51°13.189 2°50.728 246.2 13 245 11.1
2011-05-09 07:43:43 51°13.18 2°50.697 246.1 13.1 244 11.1
2011-05-09 07:43:48 51°13.172 2°50.67 246.1 13.1 246 11.1
2011-05-09 07:43:52 51°13.166 2°50.65 246.2 13.1 244 11
2011-05-09 07:43:58 51°13.157 2°50.618 245.4 13.1 244 11.2
2011-05-09 07:44:03 51°13.149 2°50.592 245.4 13 244 11.1
2011-05-09 07:44:08 51°13.14 2°50.566 245 13.1 244 11.2
2011-05-09 07:44:12 51°13.134 2°50.546 244.6 13.1 243 11.2
2011-05-09 07:44:18 51°13.124 2°50.515 244.2 13.1 243 11.2
2011-05-09 07:44:23 51°13.115 2°50.49 243.3 13.1 241 11.2
2011-05-09 07:44:28 51°13.106 2°50.464 242.5 13.1 241 11.1
2011-05-09 07:44:32 51°13.099 2°50.444 241.8 13.2 240 11.3
2011-05-09 07:44:37 51°13.09 2°50.419 241.2 13.1 240 11.2
2011-05-09 07:44:43 51°13.078 2°50.39 240.3 13.1 238 11.3
2011-05-09 07:44:48 51°13.069 2°50.364 239.6 13.1 240 11.3
2011-05-09 07:44:52 51°13.061 2°50.345 239.8 13.1 238 11.2
2011-05-09 07:44:57 51°13.052 2°50.32 239.2 13.2 239 11.3
2011-05-09 07:45:03 51°13.041 2°50.29 239.7 13.1 240 11.3
2011-05-09 07:45:08 51°13.032 2°50.265 240.6 13.2 240 11.3
2011-05-09 07:45:12 51°13.025 2°50.245 241.1 13.1 241 11.4
2011-05-09 07:45:17 51°13.016 2°50.219 241.8 13.1 240 11.4
2011-05-09 07:45:23 51°13.006 2°50.188 242.1 13.2 242 11.4
2011-05-09 07:45:28 51°12.997 2°50.163 242.6 13.2 242 11.4
2011-05-09 07:45:32 51°12.991 2°50.142 243.2 13.1 243 11.4
2011-05-09 07:45:38 51°12.981 2°50.111 243.7 13.1 243 11.3
2011-05-09 07:45:43 51°12.973 2°50.085 244.2 13.1 244 11.3
2011-05-09 07:45:48 51°12.965 2°50.059 244.7 13.2 244 11.5
2011-05-09 07:45:52 51°12.958 2°50.038 245.2 13.1 245 11.4
2011-05-09 07:45:57 51°12.951 2°50.012 245.8 13.1 245 11.5
2011-05-09 07:46:03 51°12.941 2°49.98 245.8 13.1 245 11.4
2011-05-09 07:46:08 51°12.933 2°49.954 245.7 13.2 244 11.4
2011-05-09 07:46:12 51°12.927 2°49.933 245.4 13.2 245 11.6
2011-05-09 07:46:18 51°12.917 2°49.902 245.8 13.1 244 11.5
2011-05-09 07:46:23 51°12.91 2°49.875 245.1 13.2 245 11.5
2011-05-09 07:46:28 51°12.902 2°49.849 245.2 13.2 244 11.6
2011-05-09 07:46:32 51°12.895 2°49.828 245.4 13.2 244 11.6
2011-05-09 07:46:38 51°12.886 2°49.796 245.4 13.2 245 11.6
2011-05-09 07:46:43 51°12.878 2°49.77 245.8 13.1 244 11.6
2011-05-09 07:46:48 51°12.87 2°49.744 245.2 13.2 245 11.6
2011-05-09 07:46:52 51°12.864 2°49.723 244.9 13.2 244 11.7
2011-05-09 07:46:57 51°12.856 2°49.697 244.8 13.2 243 11.6
2011-05-09 07:47:03 51°12.846 2°49.666 244.2 13.2 243 11.7
2011-05-09 07:47:08 51°12.837 2°49.64 244 13.1 242 11.7
2011-05-09 07:47:12 51°12.83 2°49.62 243.2 13.2 242 11.7
2011-05-09 07:47:18 51°12.819 2°49.589 242.2 13.1 240 11.7
2011-05-09 07:47:23 51°12.81 2°49.564 240.8 13.1 239 11.7
2011-05-09 07:47:28 51°12.801 2°49.539 240.1 13.1 240 11.7
2011-05-09 07:47:32 51°12.794 2°49.519 240.3 13.1 240 11.7
2011-05-09 07:47:37 51°12.785 2°49.494 240.5 13.1 241 11.8
2011-05-09 07:47:42 51°12.776 2°49.469 241.1 13.1 241 11.8
2011-05-09 07:47:48 51°12.765 2°49.439 241.2 13.1 241 11.8
2011-05-09 07:47:52 51°12.758 2°49.418 241.4 13.2 241 11.8
2011-05-09 07:47:57 51°12.749 2°49.393 241.8 13.1 242 11.8
2011-05-09 07:48:03 51°12.739 2°49.362 242 13.2 241 11.8
2011-05-09 07:48:08 51°12.731 2°49.336 242.3 13.1 242 11.8
2011-05-09 07:48:12 51°12.723 2°49.316 242.6 13.1 242 11.9
2011-05-09 07:48:18 51°12.713 2°49.285 242.5 13.2 243 11.9
2011-05-09 07:48:23 51°12.705 2°49.259 243 13.1 242 11.9
2011-05-09 07:48:28 51°12.696 2°49.234 242.9 13.2 242 11.9
2011-05-09 07:48:32 51°12.69 2°49.213 243.1 13.2 243 12
2011-05-09 07:48:37 51°12.681 2°49.187 243.4 13.1 242 11.9
2011-05-09 07:48:43 51°12.671 2°49.156 243.2 13.2 243 12
2011-05-09 07:48:48 51°12.662 2°49.131 243.2 13.2 241 11.8
2011-05-09 07:48:52 51°12.655 2°49.11 242.3 13.2 242 11.8
2011-05-09 07:48:56 51°12.648 2°49.09 242.2 13.2 240 12.1
2011-05-09 07:49:03 51°12.636 2°49.054 242 13.2 242 12
2011-05-09 07:49:08 51°12.627 2°49.028 242 13.2 240 12
2011-05-09 07:49:12 51°12.62 2°49.008 241.8 13.2 242 11.9
2011-05-09 07:49:17 51°12.611 2°48.982 242.1 13.2 241 12
2011-05-09 07:49:23 51°12.6 2°48.951 241.9 13.2 241 11.9
2011-05-09 07:49:28 51°12.591 2°48.926 242 13.2 242 11.9
2011-05-09 07:49:32 51°12.584 2°48.905 242.5 13.2 241 12
2011-05-09 07:49:38 51°12.574 2°48.874 242.6 13.2 242 12
2011-05-09 07:49:42 51°12.567 2°48.854 242.6 13.2 242 12
2011-05-09 07:49:48 51°12.557 2°48.824 242.6 13.3 242 12.1
2011-05-09 07:49:52 51°12.55 2°48.803 243 13.2 242 12.1
2011-05-09 07:49:58 51°12.539 2°48.771 243.2 13.2 242 12.1
2011-05-09 07:50:02 51°12.532 2°48.751 243.6 13.2 242 12.1
2011-05-09 07:50:08 51°12.522 2°48.72 243.7 13.2 243 12
2011-05-09 07:50:12 51°12.516 2°48.699 244 13.3 243 12.2
2011-05-09 07:50:18 51°12.507 2°48.668 244.4 13.3 245 12.1
2011-05-09 07:50:23 51°12.498 2°48.641 245.1 13.3 243 12.1
2011-05-09 07:50:28 51°12.491 2°48.615 244.9 13.3 245 12.1
2011-05-09 07:50:32 51°12.484 2°48.594 245.7 13.3 244 12.1
2011-05-09 07:50:38 51°12.475 2°48.562 245.8 13.3 246 12.1
2011-05-09 07:50:42 51°12.469 2°48.541 246.1 13.3 244 12.2
2011-05-09 07:50:48 51°12.46 2°48.509 245.8 13.3 245 12.3
2011-05-09 07:50:52 51°12.453 2°48.488 245.8 13.3 244 12.2
2011-05-09 07:50:58 51°12.444 2°48.456 245.3 13.3 245 12.3
2011-05-09 07:51:02 51°12.437 2°48.435 245.2 13.3 244 12.2
2011-05-09 07:51:08 51°12.427 2°48.403 244.8 13.3 245 12.5
2011-05-09 07:51:12 51°12.421 2°48.382 245.2 13.2 244 12.4
2011-05-09 07:51:17 51°12.413 2°48.356 245.1 13.3 245 12.3
2011-05-09 07:51:23 51°12.404 2°48.324 245.3 13.2 245 12.3
2011-05-09 07:51:28 51°12.396 2°48.297 245.5 13.3 245 12.4
2011-05-09 07:51:32 51°12.39 2°48.276 245.5 13.3 244 12.2
2011-05-09 07:51:37 51°12.381 2°48.25 245 13.3 244 12.3
2011-05-09 07:51:43 51°12.372 2°48.219 244.9 13.2 243 12.3
2011-05-09 07:51:48 51°12.363 2°48.192 244.2 13.3 243 12.3
2011-05-09 07:51:52 51°12.356 2°48.172 243.5 13.3 242 12.4
2011-05-09 07:51:57 51°12.348 2°48.146 242.8 13.2 241 12.3
2011-05-09 07:52:02 51°12.338 2°48.121 241.6 13.2 240 12.3
2011-05-09 07:52:08 51°12.327 2°48.09 240.6 13.3 240 12.4
2011-05-09 07:52:12 51°12.32 2°48.07 240.4 13.2 239 12.4
2011-05-09 07:52:17 51°12.31 2°48.046 239.5 13.3 239 12.4
2011-05-09 07:52:23 51°12.3 2°48.015 239.7 13.2 241 12.4
2011-05-09 07:52:28 51°12.29 2°47.99 240.3 13.2 239 12.4
2011-05-09 07:52:32 51°12.283 2°47.97 239.8 13.3 241 12.4
2011-05-09 07:52:38 51°12.272 2°47.939 240.7 13.3 241 12.4
2011-05-09 07:52:43 51°12.263 2°47.913 241.4 13.2 241 12.5
2011-05-09 07:52:48 51°12.254 2°47.888 241.7 13.2 242 12.4
2011-05-09 07:52:52 51°12.247 2°47.867 242.3 13.3 241 12.5
2011-05-09 07:52:57 51°12.239 2°47.841 242.6 13.3 243 12.4
2011-05-09 07:53:03 51°12.228 2°47.81 242.9 13.3 241 12.5
2011-05-09 07:53:08 51°12.22 2°47.783 242.8 13.3 243 12.4
2011-05-09 07:53:12 51°12.213 2°47.763 243.3 13.3 242 12.4
2011-05-09 07:53:18 51°12.203 2°47.731 243.2 13.4 243 12.5
2011-05-09 07:53:23 51°12.195 2°47.705 243.6 13.3 244 12.4
2011-05-09 07:53:28 51°12.186 2°47.679 244.2 13.3 243 12.5
2011-05-09 07:53:32 51°12.18 2°47.657 244.4 13.3 245 12.5
2011-05-09 07:53:37 51°12.173 2°47.631 245.4 13.4 246 12.5
2011-05-09 07:53:43 51°12.164 2°47.598 246.4 13.3 247 12.6
2011-05-09 07:53:48 51°12.157 2°47.571 247.8 13.3 249 12.5
2011-05-09 07:53:52 51°12.152 2°47.549 249 13.3 248 12.6
2011-05-09 07:53:57 51°12.146 2°47.521 250.1 13.4 251 12.5
2011-05-09 07:54:03 51°12.138 2°47.488 251 13.4 251 12.5
2011-05-09 07:54:08 51°12.132 2°47.46 251.8 13.3 251 12.7
2011-05-09 07:54:12 51°12.128 2°47.438 252.7 13.3 253 12.5
2011-05-09 07:54:18 51°12.121 2°47.404 252.8 13.4 251 12.7
2011-05-09 07:54:23 51°12.115 2°47.376 253.1 13.4 252 12.6
2011-05-09 07:54:28 51°12.11 2°47.348 253.1 13.4 252 12.6
2011-05-09 07:54:32 51°12.105 2°47.325 253.1 13.4 252 12.7
2011-05-09 07:54:37 51°12.099 2°47.298 253.1 13.3 251 12.7
2011-05-09 07:54:43 51°12.093 2°47.264 252.8 13.3 252 12.5
2011-05-09 07:54:48 51°12.086 2°47.236 252.6 13.4 250 12.7
2011-05-09 07:54:52 51°12.081 2°47.214 251.9 13.3 250 12.6
2011-05-09 07:54:58 51°12.074 2°47.182 251.4 13.2 249 12.5
2011-05-09 07:55:03 51°12.067 2°47.155 250.4 13.2 248 12.6
2011-05-09 07:55:08 51°12.06 2°47.128 249 13.2 247 12.6
2011-05-09 07:55:12 51°12.054 2°47.106 248.1 13.2 247 12.6
2011-05-09 07:55:18 51°12.045 2°47.074 248.1 13.2 247 12.6
2011-05-09 07:55:23 51°12.038 2°47.048 247.3 13.2 246 12.6
2011-05-09 07:55:28 51°12.031 2°47.022 246.8 13.1 246 12.7
2011-05-09 07:55:32 51°12.025 2°47 246.7 13.2 246 12.6
2011-05-09 07:55:38 51°12.016 2°46.968 246.9 13.2 248 12.5
2011-05-09 07:55:43 51°12.009 2°46.941 247.9 13.2 247 12.7
2011-05-09 07:55:48 51°12.003 2°46.914 248.3 13.2 249 12.7
2011-05-09 07:55:52 51°11.997 2°46.892 249 13.2 249 12.6
2011-05-09 07:55:58 51°11.99 2°46.859 249.8 13.3 250 12.6
2011-05-09 07:56:03 51°11.984 2°46.832 250.6 13.2 251 12.5
2011-05-09 07:56:08 51°11.978 2°46.804 251.3 13.2 252 12.6
2011-05-09 07:56:12 51°11.973 2°46.782 252 13.2 251 12.7
2011-05-09 07:56:17 51°11.968 2°46.754 252.7 13.2 253 12.6
2011-05-09 07:56:23 51°11.961 2°46.721 253.1 13.3 251 12.7
2011-05-09 07:56:28 51°11.956 2°46.693 252.8 13.3 253 12.7
2011-05-09 07:56:32 51°11.951 2°46.671 253.3 13.2 251 12.7
2011-05-09 07:56:38 51°11.944 2°46.637 252.9 13.2 253 12.7
2011-05-09 07:56:43 51°11.938 2°46.61 253.3 13.3 251 12.7
2011-05-09 07:56:48 51°11.933 2°46.581 252.7 13.3 253 12.7
2011-05-09 07:56:52 51°11.928 2°46.559 253.1 13.2 252 12.7
2011-05-09 07:56:57 51°11.923 2°46.531 252.7 13.3 252 12.7
2011-05-09 07:57:03 51°11.916 2°46.498 252.7 13.3 252 12.7
2011-05-09 07:57:08 51°11.91 2°46.47 252.7 13.2 251 12.8
2011-05-09 07:57:12 51°11.905 2°46.448 252.1 13.3 251 12.6
2011-05-09 07:57:18 51°11.898 2°46.415 251.5 13.3 250 12.7
2011-05-09 07:57:23 51°11.891 2°46.388 251.3 13.3 249 12.8
2011-05-09 07:57:28 51°11.884 2°46.36 250.3 13.3 249 12.7
2011-05-09 07:57:32 51°11.879 2°46.338 249.3 13.4 248 12.7
2011-05-09 07:57:38 51°11.87 2°46.306 248.5 13.4 248 12.7
2011-05-09 07:57:43 51°11.863 2°46.279 247.8 13.3 246 12.7
2011-05-09 07:57:48 51°11.855 2°46.252 247 13.3 246 12.7
2011-05-09 07:57:52 51°11.849 2°46.231 246.4 13.3 246 12.7
2011-05-09 07:57:58 51°11.841 2°46.198 246.7 13.3 246 12.7
2011-05-09 07:58:03 51°11.833 2°46.172 246.5 13.3 246 12.6
2011-05-09 07:58:08 51°11.826 2°46.145 246.5 13.3 246 12.8
2011-05-09 07:58:12 51°11.82 2°46.123 247.1 13.3 247 12.7
2011-05-09 07:58:17 51°11.813 2°46.096 247.5 13.4 247 12.8
2011-05-09 07:58:22 51°11.806 2°46.068 247.9 13.4 248 12.7
2011-05-09 07:58:28 51°11.798 2°46.036 248.4 13.3 248 12.6
2011-05-09 07:58:32 51°11.792 2°46.014 248.4 13.4 249 12.7
2011-05-09 07:58:37 51°11.786 2°45.986 249.4 13.3 250 12.7
2011-05-09 07:58:43 51°11.778 2°45.953 250.1 13.3 250 12.7
2011-05-09 07:58:48 51°11.772 2°45.925 251 13.4 251 12.7
2011-05-09 07:58:52 51°11.768 2°45.903 251.9 13.4 253 12.6
2011-05-09 07:58:58 51°11.761 2°45.869 253.4 13.4 254 12.7
2011-05-09 07:59:03 51°11.757 2°45.84 254.9 13.3 256 12.6
2011-05-09 07:59:08 51°11.753 2°45.811 256.6 13.4 256 12.9
2011-05-09 07:59:12 51°11.75 2°45.788 258.1 13.4 259 12.7
2011-05-09 07:59:17 51°11.746 2°45.759 259.6 13.3 259 12.8
2011-05-09 07:59:23 51°11.743 2°45.724 260.7 13.4 260 12.8
2011-05-09 07:59:28 51°11.74 2°45.695 261.6 13.4 261 12.7
2011-05-09 07:59:32 51°11.738 2°45.672 262.1 13.4 261 12.6
2011-05-09 07:59:38 51°11.734 2°45.637 262.3 13.4 262 12.8
2011-05-09 07:59:43 51°11.731 2°45.608 263 13.4 261 12.7
2011-05-09 07:59:48 51°11.729 2°45.578 263.1 13.4 262 12.7
2011-05-09 07:59:52 51°11.727 2°45.555 263 13.4 262 12.7
2011-05-09 07:59:58 51°11.723 2°45.52 262.8 13.4 261 12.8
2011-05-09 08:00:03 51°11.72 2°45.491 262.7 13.4 261 12.7
2011-05-09 08:00:08 51°11.718 2°45.462 262.7 13.4 261 12.7
2011-05-09 08:00:12 51°11.715 2°45.438 262.6 13.3 261 12.7
2011-05-09 08:00:18 51°11.712 2°45.404 262.3 13.3 262 12.7
2011-05-09 08:00:23 51°11.709 2°45.375 262.1 13.3 260 12.8
2011-05-09 08:00:28 51°11.706 2°45.345 261.8 13.3 261 12.8
2011-05-09 08:00:32 51°11.703 2°45.322 261.8 13.3 260 12.8
2011-05-09 08:00:37 51°11.7 2°45.293 261.2 13.4 260 12.7
2011-05-09 08:00:42 51°11.697 2°45.265 260.7 13.3 259 12.7
2011-05-09 08:00:48 51°11.692 2°45.23 260.1 13.3 258 12.7
2011-05-09 08:00:52 51°11.689 2°45.207 259 13.3 257 12.8
2011-05-09 08:00:57 51°11.684 2°45.179 258 13.3 257 12.7
2011-05-09 08:01:03 51°11.679 2°45.145 257.2 13.3 256 12.7
2011-05-09 08:01:08 51°11.674 2°45.116 256.6 13.3 256 12.8
2011-05-09 08:01:12 51°11.671 2°45.093 256.5 13.3 256 12.6
2011-05-09 08:01:18 51°11.665 2°45.059 256.1 13.3 256 12.7
2011-05-09 08:01:23 51°11.661 2°45.031 256.3 13.3 257 12.5
2011-05-09 08:01:28 51°11.657 2°45.002 257 13.3 256 12.7
2011-05-09 08:01:32 51°11.654 2°44.979 257.1 13.3 258 12.7
2011-05-09 08:01:37 51°11.649 2°44.951 257.9 13.4 256 12.7
2011-05-09 08:01:43 51°11.645 2°44.916 258 13.3 259 12.6
2011-05-09 08:01:48 51°11.641 2°44.887 258.9 13.3 258 12.6
2011-05-09 08:01:52 51°11.638 2°44.864 259 13.4 259 12.7
2011-05-09 08:01:58 51°11.634 2°44.829 259.9 13.3 259 12.7
2011-05-09 08:02:03 51°11.63 2°44.8 260.4 13.4 259 12.6
2011-05-09 08:02:08 51°11.627 2°44.771 260.9 13.4 261 12.6
2011-05-09 08:02:12 51°11.625 2°44.748 261.6 13.3 260 12.4
2011-05-09 08:02:18 51°11.621 2°44.713 261.5 13.4 260 12.6
2011-05-09 08:02:23 51°11.618 2°44.684 261.6 13.4 260 12.6
2011-05-09 08:02:28 51°11.615 2°44.654 261.6 13.4 260 12.7
2011-05-09 08:02:32 51°11.613 2°44.631 261.5 13.3 260 12.6
2011-05-09 08:02:38 51°11.609 2°44.596 261.4 13.4 261 12.7
2011-05-09 08:02:43 51°11.606 2°44.567 261.5 13.4 260 12.6
2011-05-09 08:02:48 51°11.603 2°44.538 261.6 13.3 261 12.6
2011-05-09 08:02:52 51°11.6 2°44.515 261.6 13.4 260 12.5
2011-05-09 08:02:57 51°11.597 2°44.486 261.4 13.4 260 12.7
2011-05-09 08:03:02 51°11.594 2°44.457 261.3 13.3 259 12.5
2011-05-09 08:03:08 51°11.59 2°44.422 260.4 13.3 260 12.5
2011-05-09 08:03:12 51°11.587 2°44.399 260 13.4 259 12.6
2011-05-09 08:03:17 51°11.584 2°44.37 259.9 13.3 260 12.5
2011-05-09 08:03:23 51°11.58 2°44.335 260.1 13.4 259 12.6
2011-05-09 08:03:28 51°11.577 2°44.306 260.6 13.4 261 12.6
2011-05-09 08:03:32 51°11.574 2°44.282 261.4 13.4 261 12.5
2011-05-09 08:03:38 51°11.571 2°44.247 261.8 13.4 262 12.4
2011-05-09 08:03:43 51°11.569 2°44.218 262.3 13.4 262 12.5
2011-05-09 08:03:48 51°11.566 2°44.189 263 13.4 262 12.4
2011-05-09 08:03:52 51°11.564 2°44.165 263.8 13.4 264 12.5
2011-05-09 08:03:57 51°11.562 2°44.136 264.3 13.4 263 12.5
2011-05-09 08:04:03 51°11.56 2°44.1 264.7 13.4 264 12.5
2011-05-09 08:04:08 51°11.558 2°44.071 265.2 13.4 264 12.4
2011-05-09 08:04:12 51°11.556 2°44.047 265.3 13.4 265 12.3
2011-05-09 08:04:18 51°11.554 2°44.012 265.5 13.4 264 12.5
2011-05-09 08:04:23 51°11.552 2°43.983 265.9 13.4 265 12.3
2011-05-09 08:04:28 51°11.55 2°43.953 266.1 13.4 265 12.2
2011-05-09 08:04:32 51°11.549 2°43.93 265.9 13.4 265 12.4
2011-05-09 08:04:38 51°11.547 2°43.894 266.4 13.4 266 12.3
2011-05-09 08:04:43 51°11.545 2°43.865 266.8 13.3 265 12.2
2011-05-09 08:04:48 51°11.544 2°43.836 266.9 13.3 267 12.2
2011-05-09 08:04:52 51°11.543 2°43.812 267.5 13.3 267 12.2
2011-05-09 08:04:57 51°11.542 2°43.783 268 13.3 267 12.2
2011-05-09 08:05:03 51°11.541 2°43.748 268 13.3 267 12.1
2011-05-09 08:05:08 51°11.54 2°43.718 267.9 13.3 266 12
2011-05-09 08:05:12 51°11.539 2°43.695 267.6 13.3 267 12
2011-05-09 08:05:17 51°11.538 2°43.665 267.5 13.2 266 11.9
2011-05-09 08:05:22 51°11.536 2°43.636 266.9 13.3 265 12.1
2011-05-09 08:05:28 51°11.534 2°43.601 266.3 13.3 265 12
2011-05-09 08:05:32 51°11.533 2°43.578 265.9 13.3 264 11.9
2011-05-09 08:05:37 51°11.531 2°43.549 265.2 13.3 264 12
2011-05-09 08:05:43 51°11.528 2°43.514 264.3 13.3 263 11.8
2011-05-09 08:05:48 51°11.525 2°43.485 263.6 13.3 261 11.9
2011-05-09 08:05:52 51°11.523 2°43.462 262.9 13.2 262 11.7
2011-05-09 08:05:58 51°11.519 2°43.427 262 13.2 260 11.6
2011-05-09 08:06:03 51°11.516 2°43.398 261.5 13.3 261 11.5
2011-05-09 08:06:08 51°11.513 2°43.37 261.4 13.3 260 11.7
2011-05-09 08:06:12 51°11.511 2°43.347 261.3 13.2 261 11.6
2011-05-09 08:06:17 51°11.508 2°43.318 261.6 13.3 261 11.4
2011-05-09 08:06:23 51°11.504 2°43.283 262 13.4 262 11.5
2011-05-09 08:06:28 51°11.502 2°43.254 263.5 13.3 263 11.5
2011-05-09 08:06:32 51°11.5 2°43.231 264.3 13.2 264 11.3
2011-05-09 08:06:38 51°11.498 2°43.196 265.1 13.2 264 11.2
2011-05-09 08:06:43 51°11.496 2°43.167 265.7 13.3 265 11.2
2011-05-09 08:06:48 51°11.495 2°43.137 266.6 13.3 266 11.4
2011-05-09 08:06:52 51°11.494 2°43.114 267.3 13.3 265 11.3
2011-05-09 08:06:57 51°11.493 2°43.085 267.4 13.3 267 11.4
2011-05-09 08:07:03 51°11.492 2°43.049 268.4 13.3 267 11.4
2011-05-09 08:07:08 51°11.491 2°43.02 268.5 13.3 266 11
2011-05-09 08:07:12 51°11.49 2°42.997 268.2 13.3 267 11.1
2011-05-09 08:07:18 51°11.488 2°42.962 267.9 13.3 265 11.3
2011-05-09 08:07:23 51°11.486 2°42.933 266.8 13.3 264 11.2
2011-05-09 08:07:28 51°11.484 2°42.903 265.5 13.3 263 11.2
2011-05-09 08:07:32 51°11.481 2°42.88 263.8 13.3 261 11.3
2011-05-09 08:07:37 51°11.479 2°42.851 263.1 13.3 262 11.1
2011-05-09 08:07:42 51°11.476 2°42.822 262.7 13.3 260 11.1
2011-05-09 08:07:48 51°11.472 2°42.787 262.1 13.3 261 11
2011-05-09 08:07:52 51°11.469 2°42.764 262.1 13.3 260 11
2011-05-09 08:07:58 51°11.465 2°42.729 261.7 13.3 260 11.1
2011-05-09 08:08:03 51°11.462 2°42.701 261.6 13.3 260 11.1
2011-05-09 08:08:08 51°11.459 2°42.672 262.1 13.3 262 11
2011-05-09 08:08:12 51°11.457 2°42.648 262.6 13.3 262 11.1
2011-05-09 08:08:18 51°11.455 2°42.613 263.6 13.3 264 11
2011-05-09 08:08:23 51°11.452 2°42.584 264.7 13.3 264 11.3
2011-05-09 08:08:28 51°11.451 2°42.555 266.1 13.3 266 11
2011-05-09 08:08:32 51°11.45 2°42.531 267.1 13.3 265 11.1
2011-05-09 08:08:38 51°11.449 2°42.496 267.6 13.3 267 11.1
2011-05-09 08:08:43 51°11.448 2°42.467 268.3 13.3 266 11
2011-05-09 08:08:48 51°11.447 2°42.437 268.3 13.3 267 11.3
2011-05-09 08:08:52 51°11.446 2°42.414 268.9 13.3 266 11.4
2011-05-09 08:08:58 51°11.444 2°42.379 268.7 13.3 267 11.4
2011-05-09 08:09:03 51°11.443 2°42.349 268.5 13.3 265 11.3
2011-05-09 08:09:08 51°11.441 2°42.32 266.2 13.3 263 11.2
2011-05-09 08:09:12 51°11.439 2°42.297 264.8 13.3 263 11.2
2011-05-09 08:09:17 51°11.436 2°42.268 262.8 13.2 260 11.3
2011-05-09 08:09:23 51°11.431 2°42.234 261 13.2 258 11.2
2011-05-09 08:09:28 51°11.427 2°42.206 259.2 13.2 258 11.1
2011-05-09 08:09:32 51°11.423 2°42.183 258.2 13.2 255 11.4
2011-05-09 08:09:37 51°11.418 2°42.155 257.3 13.3 256 11.3
2011-05-09 08:09:42 51°11.414 2°42.126 256.5 13.2 254 11.2
2011-05-09 08:09:48 51°11.408 2°42.093 255.6 13.3 255 11.4
2011-05-09 08:09:52 51°11.404 2°42.07 255.3 13.3 254 11.3
2011-05-09 08:09:57 51°11.399 2°42.042 255.1 13.3 254 11.1
2011-05-09 08:10:03 51°11.393 2°42.008 255 13.3 254 11.2
2011-05-09 08:10:08 51°11.388 2°41.98 255.1 13.3 254 11.4
2011-05-09 08:10:12 51°11.384 2°41.957 255.6 13.3 254 11.4
2011-05-09 08:10:17 51°11.379 2°41.929 255.6 13.3 255 11.1
2011-05-09 08:10:23 51°11.373 2°41.895 255.9 13.3 255 11.3
2011-05-09 08:10:28 51°11.369 2°41.866 257 13.3 256 11.4
2011-05-09 08:10:32 51°11.365 2°41.844 257.2 13.3 255 11.5
2011-05-09 08:10:38 51°11.359 2°41.81 256.5 13.3 254 11.5
2011-05-09 08:10:43 51°11.354 2°41.782 255.8 13.3 255 11.1
2011-05-09 08:10:48 51°11.348 2°41.754 255.5 13.3 252 11.6
2011-05-09 08:10:52 51°11.344 2°41.731 254.2 13.3 252 11.5
2011-05-09 08:10:57 51°11.338 2°41.703 253 13.3 250 11.5
2011-05-09 08:11:03 51°11.33 2°41.67 251.9 13.3 250 11.4
2011-05-09 08:11:08 51°11.323 2°41.643 250.5 13.3 248 11.6
2011-05-09 08:11:12 51°11.318 2°41.621 249.6 13.3 248 11.4
2011-05-09 08:11:18 51°11.308 2°41.589 247.8 13.3 245 11.7
2011-05-09 08:11:23 51°11.3 2°41.563 245.7 13.3 243 11.5
2011-05-09 08:11:28 51°11.291 2°41.537 243.5 13.3 241 11.5
2011-05-09 08:11:32 51°11.283 2°41.517 241.2 13.2 240 11.6
2011-05-09 08:11:37 51°11.274 2°41.493 239.9 13.2 237 11.8
2011-05-09 08:11:43 51°11.262 2°41.463 238.2 13.3 237 11.8
2011-05-09 08:11:48 51°11.251 2°41.439 237.2 13.3 235 11.8
2011-05-09 08:11:52 51°11.242 2°41.42 235.4 13.3 234 11.8
2011-05-09 08:11:57 51°11.232 2°41.396 234.5 13.2 234 11.8
2011-05-09 08:12:03 51°11.218 2°41.369 233.5 13.2 233 11.9
2011-05-09 08:12:08 51°11.207 2°41.345 233.1 13.3 234 11.9
2011-05-09 08:12:12 51°11.198 2°41.326 233.1 13.3 232 12
2011-05-09 08:12:17 51°11.187 2°41.303 232.7 13.3 234 12
2011-05-09 08:12:22 51°11.176 2°41.279 233.1 13.3 234 11.9
2011-05-09 08:12:28 51°11.163 2°41.251 233.2 13.4 234 12.3
2011-05-09 08:12:32 51°11.154 2°41.231 234.2 13.3 235 12.3
2011-05-09 08:12:37 51°11.143 2°41.208 234.6 13.4 235 12.3
2011-05-09 08:12:42 51°11.133 2°41.183 235.1 13.3 236 12.5
2011-05-09 08:12:48 51°11.121 2°41.154 236.2 13.4 236 12.2
2011-05-09 08:12:52 51°11.114 2°41.135 236.3 13.4 237 12.4
2011-05-09 08:12:58 51°11.101 2°41.104 237.4 13.4 237 12.3
2011-05-09 08:13:03 51°11.091 2°41.079 237.6 13.4 239 12.4
2011-05-09 08:13:08 51°11.081 2°41.054 238.3 13.4 239 12.4
2011-05-09 08:13:12 51°11.074 2°41.033 239 13.3 239 12.5
2011-05-09 08:13:18 51°11.062 2°41.003 238.9 13.4 239 12.5
2011-05-09 08:13:23 51°11.053 2°40.978 239 13.4 239 12.6
2011-05-09 08:13:28 51°11.043 2°40.953 239.4 13.3 239 12.6
2011-05-09 08:13:32 51°11.036 2°40.932 239.6 13.3 240 12.6
2011-05-09 08:13:38 51°11.025 2°40.902 240 13.3 241 12.6
2011-05-09 08:13:43 51°11.015 2°40.877 240.2 13.2 240 12.7
2011-05-09 08:13:48 51°11.007 2°40.851 240 13.2 240 12.8
2011-05-09 08:13:52 51°10.999 2°40.831 239.7 13.2 239 12.7
2011-05-09 08:13:57 51°10.99 2°40.806 238.8 13.2 238 12.7
2011-05-09 08:14:03 51°10.978 2°40.777 237.7 13.2 237 12.8
2011-05-09 08:14:08 51°10.967 2°40.754 236.6 13.1 235 12.8
2011-05-09 08:14:12 51°10.959 2°40.734 235.3 13.1 235 12.8
2011-05-09 08:14:18 51°10.946 2°40.706 234.5 13.1 234 12.9
2011-05-09 08:14:22 51°10.938 2°40.688 234.1 13.1 234 13
2011-05-09 08:14:28 51°10.925 2°40.66 234 13.1 234 12.9
2011-05-09 08:14:32 51°10.917 2°40.641 234 13.1 235 13
2011-05-09 08:14:37 51°10.906 2°40.617 234.5 13.1 236 13
2011-05-09 08:14:42 51°10.896 2°40.593 235.3 13.1 236 12.9
2011-05-09 08:14:48 51°10.884 2°40.564 235.6 13.2 237 13
2011-05-09 08:14:52 51°10.876 2°40.545 236.2 13.1 236 13.1
2011-05-09 08:14:58 51°10.864 2°40.516 236.5 13.2 237 13.2
2011-05-09 08:15:02 51°10.856 2°40.496 236.4 13.2 237 13.3
2011-05-09 08:15:08 51°10.843 2°40.467 236.8 13.1 236 13.3
2011-05-09 08:15:12 51°10.835 2°40.448 236.6 13.2 236 13.3
2011-05-09 08:15:18 51°10.823 2°40.419 236.3 13.2 236 13.3
2011-05-09 08:15:23 51°10.813 2°40.395 236.4 13.2 236 13.4
2011-05-09 08:15:28 51°10.802 2°40.371 236.2 13.2 236 13.3
2011-05-09 08:15:32 51°10.794 2°40.351 236 13.2 236 13.3
2011-05-09 08:15:38 51°10.782 2°40.322 236.2 13.2 236 13.4
2011-05-09 08:15:42 51°10.774 2°40.303 236.5 13.3 237 13.6
2011-05-09 08:15:48 51°10.762 2°40.273 237 13.2 238 13.5
2011-05-09 08:15:52 51°10.754 2°40.253 237.5 13.3 239 13.4
2011-05-09 08:15:58 51°10.743 2°40.223 238.2 13.3 239 13.6
2011-05-09 08:16:03 51°10.734 2°40.198 239.1 13.3 239 13.6
2011-05-09 08:16:08 51°10.725 2°40.172 239.1 13.3 239 13.6
2011-05-09 08:16:12 51°10.717 2°40.152 239.5 13.3 240 13.7
2011-05-09 08:16:18 51°10.706 2°40.121 239.8 13.3 240 13.8
2011-05-09 08:16:23 51°10.698 2°40.095 240.4 13.3 241 13.7
2011-05-09 08:16:28 51°10.688 2°40.07 240.2 13.4 241 13.7
2011-05-09 08:16:32 51°10.681 2°40.049 240.3 13.3 240 13.8
2011-05-09 08:16:37 51°10.672 2°40.023 240.2 13.3 240 13.9
2011-05-09 08:16:43 51°10.66 2°39.993 239.6 13.3 239 14
2011-05-09 08:16:48 51°10.651 2°39.968 238.7 13.3 239 14
2011-05-09 08:16:52 51°10.642 2°39.949 237.6 13.3 237 14.1
2011-05-09 08:16:57 51°10.632 2°39.924 236.3 13.3 237 14.1
2011-05-09 08:17:02 51°10.622 2°39.9 235.3 13.3 235 14.2
2011-05-09 08:17:08 51°10.609 2°39.872 234.4 13.3 236 14.2
2011-05-09 08:17:12 51°10.601 2°39.852 234.6 13.3 235 14.3
2011-05-09 08:17:17 51°10.59 2°39.828 234.4 13.3 235 14.3
2011-05-09 08:17:22 51°10.579 2°39.804 234.4 13.4 236 14.3
2011-05-09 08:17:28 51°10.567 2°39.775 234.9 13.4 236 14.5
2011-05-09 08:17:32 51°10.559 2°39.755 235.7 13.3 237 14.4
2011-05-09 08:17:38 51°10.546 2°39.726 235.9 13.4 237 14.3
2011-05-09 08:17:43 51°10.536 2°39.701 236.1 13.5 236 14.4
2011-05-09 08:17:48 51°10.526 2°39.676 236.5 13.4 238 14.4
2011-05-09 08:17:52 51°10.518 2°39.656 236.7 13.4 236 14.4
2011-05-09 08:17:58 51°10.506 2°39.627 236.2 13.5 237 14.5
2011-05-09 08:18:02 51°10.497 2°39.607 236.1 13.4 235 14.5
2011-05-09 08:18:08 51°10.485 2°39.578 235.5 13.4 236 14.5
2011-05-09 08:18:12 51°10.476 2°39.558 235.3 13.5 236 14.5
2011-05-09 08:18:18 51°10.464 2°39.528 235.4 13.5 236 14.5
2011-05-09 08:18:23 51°10.453 2°39.504 235.5 13.4 235 14.5
2011-05-09 08:18:28 51°10.443 2°39.48 235.1 13.5 236 14.4
2011-05-09 08:18:32 51°10.434 2°39.459 235.3 13.5 237 14.5
2011-05-09 08:18:38 51°10.423 2°39.429 236.6 13.4 239 14.7
2011-05-09 08:18:42 51°10.415 2°39.409 237.8 13.4 239 14.4
2011-05-09 08:18:48 51°10.404 2°39.378 238 13.5 240 14.5
2011-05-09 08:18:52 51°10.396 2°39.357 239.2 13.4 240 14.5
2011-05-09 08:18:57 51°10.387 2°39.332 239.5 13.4 240 14.5
2011-05-09 08:19:02 51°10.378 2°39.306 239.8 13.4 241 14.6
2011-05-09 08:19:08 51°10.367 2°39.275 240 13.4 240 14.8
2011-05-09 08:19:12 51°10.359 2°39.255 239.8 13.4 240 14.7
2011-05-09 08:19:18 51°10.348 2°39.224 239.8 13.5 240 14.8
2011-05-09 08:19:23 51°10.339 2°39.198 239.7 13.4 240 14.8
2011-05-09 08:19:28 51°10.33 2°39.172 239.7 13.4 240 15
2011-05-09 08:19:32 51°10.323 2°39.152 239.7 13.4 240 14.9
2011-05-09 08:19:38 51°10.311 2°39.121 239.7 13.5 240 15
2011-05-09 08:19:42 51°10.304 2°39.1 239.5 13.5 240 15.1
2011-05-09 08:19:48 51°10.293 2°39.07 239.7 13.4 240 14.9
2011-05-09 08:19:52 51°10.285 2°39.049 239.2 13.5 240 14.9
2011-05-09 08:19:58 51°10.274 2°39.019 239.4 13.4 240 15.1
2011-05-09 08:20:02 51°10.266 2°38.998 239.2 13.4 239 14.8
2011-05-09 08:20:08 51°10.255 2°38.968 238.6 13.5 239 14.9
2011-05-09 08:20:12 51°10.247 2°38.948 238.1 13.4 238 14.9
2011-05-09 08:20:18 51°10.235 2°38.918 237.4 13.4 237 15.1
2011-05-09 08:20:23 51°10.225 2°38.893 236.7 13.4 237 15.1
2011-05-09 08:20:28 51°10.214 2°38.868 236.3 13.4 236 15
2011-05-09 08:20:32 51°10.206 2°38.849 235.4 13.4 236 14.8
2011-05-09 08:20:37 51°10.195 2°38.825 234.9 13.4 235 14.8
2011-05-09 08:20:42 51°10.185 2°38.801 234.3 13.4 235 15.1
2011-05-09 08:20:48 51°10.172 2°38.772 234 13.4 234 15
2011-05-09 08:20:52 51°10.163 2°38.752 233.5 13.4 235 15
2011-05-09 08:20:58 51°10.15 2°38.723 233.5 13.4 235 15.1
2011-05-09 08:21:02 51°10.142 2°38.704 233.8 13.4 236 15
2011-05-09 08:21:08 51°10.129 2°38.675 234.2 13.4 235 15
2011-05-09 08:21:12 51°10.121 2°38.655 234.8 13.5 237 15
2011-05-09 08:21:18 51°10.108 2°38.625 235.6 13.4 236 15.2
2011-05-09 08:21:22 51°10.1 2°38.605 235.7 13.4 238 15.2
2011-05-09 08:21:28 51°10.088 2°38.575 236.1 13.5 237 14.9
2011-05-09 08:21:32 51°10.08 2°38.555 236.6 13.5 239 15
2011-05-09 08:21:38 51°10.068 2°38.524 237 13.5 238 15.2
2011-05-09 08:21:43 51°10.059 2°38.499 237.6 13.5 240 15.2
2011-05-09 08:21:48 51°10.05 2°38.473 238.4 13.5 239 15.2
2011-05-09 08:21:52 51°10.042 2°38.452 238.9 13.5 241 15.3
2011-05-09 08:21:58 51°10.031 2°38.421 239.6 13.5 240 15.3
2011-05-09 08:22:02 51°10.024 2°38.4 239.3 13.6 241 15.3
2011-05-09 08:22:08 51°10.012 2°38.369 239.1 13.6 240 15.2
2011-05-09 08:22:12 51°10.005 2°38.348 239.4 13.5 241 15.2
2011-05-09 08:22:18 51°9.994 2°38.317 239.6 13.5 240 15.2
2011-05-09 08:22:23 51°9.985 2°38.291 239.5 13.6 241 15.2
2011-05-09 08:22:28 51°9.976 2°38.265 239.7 13.5 241 15.3
2011-05-09 08:22:32 51°9.969 2°38.244 240 13.6 241 15.4
2011-05-09 08:22:38 51°9.958 2°38.212 240 13.6 241 15.6
2011-05-09 08:22:43 51°9.949 2°38.186 240.2 13.6 240 15.7
2011-05-09 08:22:48 51°9.939 2°38.16 239.7 13.5 239 15.6
2011-05-09 08:22:52 51°9.931 2°38.14 238.5 13.5 238 15.5
2011-05-09 08:22:57 51°9.921 2°38.115 237 13.6 237 15.6
2011-05-09 08:23:03 51°9.908 2°38.085 236 13.6 236 15.6
2011-05-09 08:23:08 51°9.898 2°38.061 235.5 13.4 236 15.4
2011-05-09 08:23:12 51°9.889 2°38.042 234.4 13.5 235 15.4
2011-05-09 08:23:18 51°9.876 2°38.012 234.1 13.6 235 15.4
2011-05-09 08:23:22 51°9.868 2°37.993 234.5 13.5 235 15.3
2011-05-09 08:23:28 51°9.855 2°37.963 234.5 13.5 235 15.4
2011-05-09 08:23:32 51°9.847 2°37.943 234.8 13.5 237 15.3
2011-05-09 08:23:37 51°9.836 2°37.919 235.2 13.6 236 15.4
2011-05-09 08:23:42 51°9.827 2°37.893 236 13.5 238 15.3
2011-05-09 08:23:48 51°9.815 2°37.863 237 13.5 239 15.2
2011-05-09 08:23:52 51°9.807 2°37.842 237.5 13.6 239 15.4
2011-05-09 08:23:58 51°9.796 2°37.811 238.3 13.6 241 15.3
2011-05-09 08:24:02 51°9.788 2°37.791 239.2 13.5 240 15.2
2011-05-09 08:24:08 51°9.777 2°37.759 239 13.6 241 15.3
2011-05-09 08:24:12 51°9.77 2°37.738 239.9 13.6 241 15.2
2011-05-09 08:24:18 51°9.758 2°37.706 239.8 13.6 241 15.2
2011-05-09 08:24:22 51°9.751 2°37.686 239.8 13.6 241 15.3
2011-05-09 08:24:28 51°9.74 2°37.654 239.8 13.6 240 15.3
2011-05-09 08:24:32 51°9.733 2°37.633 239.5 13.7 241 15.4
2011-05-09 08:24:38 51°9.721 2°37.602 239.4 13.6 240 15.3
2011-05-09 08:24:43 51°9.712 2°37.576 239.1 13.6 240 15.4
2011-05-09 08:24:48 51°9.702 2°37.55 238.7 13.6 240 15.4
2011-05-09 08:24:52 51°9.695 2°37.53 238.3 13.6 238 15.3
2011-05-09 08:24:57 51°9.685 2°37.504 237.6 13.6 238 15.3
2011-05-09 08:25:03 51°9.672 2°37.474 236.2 13.6 237 15.2
2011-05-09 08:25:08 51°9.662 2°37.449 235.1 13.7 236 15.3
2011-05-09 08:25:12 51°9.653 2°37.429 234.6 13.6 235 15.4
2011-05-09 08:25:18 51°9.64 2°37.4 233.9 13.6 235 15.3
2011-05-09 08:25:23 51°9.629 2°37.375 233.2 13.6 235 15.2
2011-05-09 08:25:28 51°9.618 2°37.35 233.1 13.7 234 15.3
2011-05-09 08:25:32 51°9.61 2°37.33 233.5 13.6 236 15
2011-05-09 08:25:37 51°9.599 2°37.306 234.3 13.6 235 15.2
2011-05-09 08:25:42 51°9.589 2°37.28 234.3 13.7 237 15.2
2011-05-09 08:25:48 51°9.577 2°37.25 235.6 13.8 238 15
2011-05-09 08:25:52 51°9.569 2°37.229 236.5 13.7 238 15.2
2011-05-09 08:25:58 51°9.557 2°37.198 237.6 13.7 239 15.3
2011-05-09 08:26:02 51°9.549 2°37.178 237.7 13.7 239 15
2011-05-09 08:26:08 51°9.538 2°37.146 238.2 13.7 240 15
2011-05-09 08:26:12 51°9.53 2°37.125 238.8 13.8 240 15.3
2011-05-09 08:26:18 51°9.519 2°37.094 239.4 13.7 241 15.1
2011-05-09 08:26:22 51°9.511 2°37.073 239.7 13.7 240 15.1
2011-05-09 08:26:28 51°9.5 2°37.04 239.5 13.8 241 15.2
2011-05-09 08:26:32 51°9.493 2°37.019 240.4 13.7 241 15.2
2011-05-09 08:26:38 51°9.482 2°36.988 239.8 13.7 241 15
2011-05-09 08:26:43 51°9.472 2°36.961 239.7 13.8 241 15.2
2011-05-09 08:26:48 51°9.463 2°36.935 239.8 13.8 240 15.1
2011-05-09 08:26:52 51°9.455 2°36.914 239.2 13.7 240 15.1
2011-05-09 08:26:58 51°9.444 2°36.883 238.5 13.7 239 15.1
2011-05-09 08:27:03 51°9.433 2°36.857 237.6 13.7 238 15.2
2011-05-09 08:27:08 51°9.423 2°36.831 236.8 13.8 237 15.1
2011-05-09 08:27:12 51°9.415 2°36.812 235.7 13.7 236 15.2
2011-05-09 08:27:16 51°9.406 2°36.791 234.9 13.7 236 15.1
2011-05-09 08:27:23 51°9.391 2°36.756 234.6 13.8 236 15
2011-05-09 08:27:28 51°9.381 2°36.731 234.4 13.7 235 15.1
2011-05-09 08:27:32 51°9.372 2°36.711 234.2 13.7 236 15.1
2011-05-09 08:27:37 51°9.361 2°36.686 234.1 13.7 236 15.1
2011-05-09 08:27:42 51°9.351 2°36.662 234.5 13.5 237 15
2011-05-09 08:27:48 51°9.339 2°36.633 235.1 13.2 236 15.1
2011-05-09 08:27:52 51°9.331 2°36.613 235.3 12.8 238 15.1
2011-05-09 08:27:58 51°9.32 2°36.585 236.1 12.6 238 15.2
2011-05-09 08:28:02 51°9.314 2°36.566 237.9 12.3 243 15.1
2011-05-09 08:28:08 51°9.305 2°36.537 242 12.1 244 15.1
2011-05-09 08:28:12 51°9.3 2°36.518 244 11.9 247 15.1
2011-05-09 08:28:18 51°9.293 2°36.49 246.1 11.2 249 15.1
2011-05-09 08:28:22 51°9.29 2°36.472 251.5 10.6 255 15.1
2011-05-09 08:28:28 51°9.286 2°36.446 254.8 10.1 256 15.3
2011-05-09 08:28:32 51°9.284 2°36.429 258 9.6 258 15.3
2011-05-09 08:28:38 51°9.281 2°36.406 260 9.1 260 15.3
2011-05-09 08:28:43 51°9.28 2°36.387 262.4 8.7 262 15.3
2011-05-09 08:28:48 51°9.278 2°36.369 264.3 8.3 263 15.3
2011-05-09 08:28:52 51°9.278 2°36.355 265.9 7.9 264 15.4
2011-05-09 08:28:58 51°9.276 2°36.335 267.5 7.6 265 15.4
2011-05-09 08:29:02 51°9.276 2°36.322 269 7.3 267 15.4
2011-05-09 08:29:08 51°9.276 2°36.303 270.1 6.9 268 15.4
2011-05-09 08:29:12 51°9.275 2°36.292 271.6 6.8 269 15.5
2011-05-09 08:29:18 51°9.276 2°36.275 273.5 6.3 270 15.4
2011-05-09 08:29:22 51°9.276 2°36.264 275.2 6 271 15.5
2011-05-09 08:29:28 51°9.276 2°36.249 276.9 5.7 272 15.5
2011-05-09 08:29:32 51°9.276 2°36.24 278.7 5.4 273 15.6
2011-05-09 08:29:38 51°9.277 2°36.226 280.2 5.1 271 15.6
2011-05-09 08:29:43 51°9.277 2°36.216 279.7 4.7 271 15.5
2011-05-09 08:29:48 51°9.277 2°36.206 277.3 4.4 268 15.5
2011-05-09 08:29:52 51°9.276 2°36.199 273.2 4.1 265 15.5
2011-05-09 08:29:57 51°9.276 2°36.191 268.6 3.7 263 15.5
2011-05-09 08:30:02 51°9.275 2°36.183 263.8 3.5 259 15.4
2011-05-09 08:30:08 51°9.273 2°36.175 259 3.3 256 15.5
2011-05-09 08:30:12 51°9.273 2°36.169 254.6 3.1 254 15.5
2011-05-09 08:30:18 51°9.271 2°36.162 250.6 2.8 252 15.5
2011-05-09 08:30:22 51°9.27 2°36.158 247.2 2.6 250 15.6
2011-05-09 08:30:28 51°9.269 2°36.152 244.3 2.4 250 15.6
2011-05-09 08:30:32 51°9.268 2°36.148 241.5 2.2 249 15.5
2011-05-09 08:30:38 51°9.267 2°36.143 238.9 1.9 250 15.6
2011-05-09 08:30:43 51°9.266 2°36.14 236.5 1.6 249 15.5
2011-05-09 08:30:48 51°9.266 2°36.137 234.1 1.4 253 15.6
2011-05-09 08:30:52 51°9.265 2°36.135 231.4 1.2 255 15.6
2011-05-09 08:30:58 51°9.265 2°36.132 229.7 1 262 15.6
2011-05-09 08:31:02 51°9.265 2°36.131 227.9 0.8 266 15.6
2011-05-09 08:31:08 51°9.265 2°36.129 226.2 0.7 279 15.6
2011-05-09 08:31:12 51°9.265 2°36.128 224.4 0.7 286 15.6
2011-05-09 08:31:18 51°9.265 2°36.126 222.9 0.7 287 15.6
2011-05-09 08:31:23 51°9.265 2°36.125 221.5 0.7 286 15.6
2011-05-09 08:31:28 51°9.266 2°36.123 219.8 0.7 284 -999
2011-05-09 08:31:33 51°9.266 2°36.122 218.6 0.7 285 4.9
2011-05-09 08:31:39 51°9.266 2°36.12 216.9 0.7 283 -999
2011-05-09 08:31:44 51°9.266 2°36.119 215.7 0.8 284 4.8
2011-05-09 08:31:48 51°9.267 2°36.117 214.3 0.7 281 4.9
2011-05-09 08:31:53 51°9.267 2°36.116 213.2 0.8 286 4.9
2011-05-09 08:31:59 51°9.267 2°36.114 212.1 0.7 282 4.8
2011-05-09 08:32:04 51°9.268 2°36.112 211.4 0.8 281 15.6
2011-05-09 08:32:08 51°9.268 2°36.11 210.6 0.8 279 15.8
2011-05-09 08:32:13 51°9.268 2°36.108 210.2 0.9 283 15.6
2011-05-09 08:32:18 51°9.268 2°36.107 209.8 0.8 282 15.6
2011-05-09 08:32:23 51°9.269 2°36.105 209.7 0.8 282 15.5
2011-05-09 08:32:28 51°9.269 2°36.103 209.3 0.8 279 15.6
2011-05-09 08:32:32 51°9.269 2°36.102 209.1 0.9 279 15.6
2011-05-09 08:32:37 51°9.269 2°36.1 209 0.9 277 15.6
2011-05-09 08:32:42 51°9.269 2°36.098 208.9 0.9 278 15.6
2011-05-09 08:32:48 51°9.27 2°36.096 208.8 0.9 278 15.5
2011-05-09 08:32:52 51°9.27 2°36.094 208.8 0.9 277 15.7
2011-05-09 08:32:58 51°9.27 2°36.092 208.7 0.9 276 15.6
2011-05-09 08:33:02 51°9.27 2°36.091 208.6 0.9 275 15.6
2011-05-09 08:33:08 51°9.27 2°36.088 208.4 0.9 276 15.5
2011-05-09 08:33:12 51°9.27 2°36.087 208.2 0.8 273 15.6
2011-05-09 08:33:18 51°9.27 2°36.085 207.9 0.9 273 15.6
2011-05-09 08:33:22 51°9.27 2°36.083 207.7 0.8 271 15.7
2011-05-09 08:33:28 51°9.27 2°36.081 207.2 0.9 273 15.6
2011-05-09 08:33:32 51°9.27 2°36.08 206.9 0.9 271 15.5
2011-05-09 08:33:38 51°9.27 2°36.077 206.7 0.9 273 15.6
2011-05-09 08:33:43 51°9.27 2°36.076 206.4 0.8 270 15.7
2011-05-09 08:33:48 51°9.27 2°36.074 205.9 0.9 269 15.6
2011-05-09 08:33:52 51°9.27 2°36.072 205.6 0.8 268 15.6
2011-05-09 08:33:58 51°9.27 2°36.07 205.2 0.9 270 15.6
2011-05-09 08:34:03 51°9.27 2°36.068 205 0.9 268 15.6
2011-05-09 08:34:08 51°9.27 2°36.066 204.6 0.9 268 15.6
2011-05-09 08:34:12 51°9.27 2°36.065 204.2 0.9 268 15.6
2011-05-09 08:34:18 51°9.27 2°36.062 204 0.9 269 15.6
2011-05-09 08:34:23 51°9.27 2°36.06 203.5 0.9 267 15.5
2011-05-09 08:34:28 51°9.27 2°36.058 203.2 0.9 268 15.5
2011-05-09 08:34:32 51°9.27 2°36.057 202.8 0.9 266 15.5
2011-05-09 08:34:37 51°9.27 2°36.055 202.4 0.9 269 15.5
2011-05-09 08:34:42 51°9.27 2°36.053 202.2 0.9 267 15.4
2011-05-09 08:34:48 51°9.27 2°36.05 201.9 0.9 268 15.5
2011-05-09 08:34:52 51°9.27 2°36.049 201.6 0.9 266 15.4
2011-05-09 08:34:58 51°9.269 2°36.047 201.4 1 267 15.5
2011-05-09 08:35:03 51°9.269 2°36.045 201.3 0.9 266 15.6
2011-05-09 08:35:08 51°9.269 2°36.043 201.1 1 266 15.5
2011-05-09 08:35:12 51°9.269 2°36.041 201 1 265 15.7
2011-05-09 08:35:18 51°9.269 2°36.039 200.8 1 269 15.7
2011-05-09 08:35:22 51°9.269 2°36.037 200.5 1 267 15.6
2011-05-09 08:35:28 51°9.269 2°36.034 200.3 0.9 265 15.6
2011-05-09 08:35:32 51°9.269 2°36.033 200.3 0.9 266 15.7
2011-05-09 08:35:38 51°9.269 2°36.03 200.2 1 266 15.7
2011-05-09 08:35:43 51°9.269 2°36.028 200 1 267 15.7
2011-05-09 08:35:48 51°9.269 2°36.026 199.8 0.9 264 15.7
2011-05-09 08:35:52 51°9.269 2°36.024 199.7 0.9 265 15.7
2011-05-09 08:35:58 51°9.269 2°36.022 199.4 0.9 265 15.7
2011-05-09 08:36:03 51°9.269 2°36.02 199.1 0.9 264 15.8
2011-05-09 08:36:08 51°9.269 2°36.017 198.9 1 266 15.8
2011-05-09 08:36:12 51°9.269 2°36.016 198.6 1 264 15.8
2011-05-09 08:36:18 51°9.269 2°36.013 198.3 1 265 15.8
2011-05-09 08:36:23 51°9.268 2°36.011 198.1 0.9 263 15.8
2011-05-09 08:36:28 51°9.268 2°36.009 197.8 1 266 15.8
2011-05-09 08:36:32 51°9.268 2°36.008 197.5 0.9 263 15.9
2011-05-09 08:36:37 51°9.268 2°36.006 197.2 1 265 15.9
2011-05-09 08:36:43 51°9.268 2°36.003 196.8 0.9 262 15.9
2011-05-09 08:36:48 51°9.268 2°36.001 196.5 1 264 15.8
2011-05-09 08:36:52 51°9.268 2°36 196.2 0.9 261 15.8
2011-05-09 08:36:58 51°9.267 2°35.997 195.8 1.1 266 15.7
2011-05-09 08:37:02 51°9.267 2°35.995 195.6 0.9 260 15.8
2011-05-09 08:37:08 51°9.267 2°35.993 195.3 1 263 15.8
2011-05-09 08:37:12 51°9.267 2°35.991 194.9 0.9 260 15.8
2011-05-09 08:37:18 51°9.267 2°35.988 194.5 1.1 263 15.8
2011-05-09 08:37:22 51°9.267 2°35.987 194.3 0.9 258 15.8
2011-05-09 08:37:28 51°9.267 2°35.984 193.9 1.1 264 15.7
2011-05-09 08:37:32 51°9.266 2°35.983 193.5 0.9 258 15.7
2011-05-09 08:37:38 51°9.266 2°35.98 193.2 1 263 15.7
2011-05-09 08:37:43 51°9.266 2°35.978 192.8 0.9 259 15.7
2011-05-09 08:37:48 51°9.266 2°35.975 192.4 1.1 263 15.7
2011-05-09 08:37:52 51°9.266 2°35.974 191.9 0.9 260 15.7
2011-05-09 08:37:58 51°9.266 2°35.971 191.5 1.1 262 15.7
2011-05-09 08:38:03 51°9.266 2°35.969 191 1 260 15.5
2011-05-09 08:38:08 51°9.266 2°35.966 190.6 1.1 262 15.7
2011-05-09 08:38:12 51°9.265 2°35.965 190.1 0.9 261 15.8
2011-05-09 08:38:18 51°9.265 2°35.962 189.5 1 261 15.9
2011-05-09 08:38:23 51°9.265 2°35.96 188.9 1 261 15.8
2011-05-09 08:38:28 51°9.264 2°35.958 188.4 1.1 260 15.8
2011-05-09 08:38:32 51°9.264 2°35.956 188 1 260 15.8
2011-05-09 08:38:38 51°9.264 2°35.954 187.4 1 261 15.9
2011-05-09 08:38:43 51°9.264 2°35.952 187 1 259 15.9
2011-05-09 08:38:48 51°9.264 2°35.949 186.5 1 261 15.9
2011-05-09 08:38:52 51°9.263 2°35.948 185.8 1 260 15.9
2011-05-09 08:38:57 51°9.263 2°35.945 185.2 1 259 15.9
2011-05-09 08:39:03 51°9.263 2°35.943 184.7 1 259 16
2011-05-09 08:39:08 51°9.262 2°35.94 184.2 1.1 261 15.9
2011-05-09 08:39:12 51°9.262 2°35.939 183.7 1 258 15.9
2011-05-09 08:39:18 51°9.262 2°35.936 183 1 258 15.9
2011-05-09 08:39:22 51°9.262 2°35.935 182.3 1 258 15.9
2011-05-09 08:39:28 51°9.261 2°35.932 181.6 1 259 15.9
2011-05-09 08:39:32 51°9.261 2°35.93 181.2 1 259 15.9